createdAt,value
2023-02-27T00:03:55.377Z,2.20
2023-02-27T00:08:00.924Z,2.43
2023-02-27T00:12:07.934Z,2.27
2023-02-27T00:16:13.877Z,2.30
2023-02-27T00:20:20.171Z,2.03
2023-02-27T00:24:26.056Z,1.50
2023-02-27T00:28:31.807Z,2.10
2023-02-27T00:32:37.307Z,2.07
2023-02-27T00:36:42.902Z,1.80
2023-02-27T00:40:48.350Z,2.50
2023-02-27T00:44:54.378Z,1.77
2023-02-27T00:49:00.002Z,1.90
2023-02-27T00:53:05.510Z,2.20
2023-02-27T00:57:11.059Z,2.07
2023-02-27T01:01:16.557Z,2.00
2023-02-27T01:05:23.112Z,1.83
2023-02-27T01:09:28.586Z,1.80
2023-02-27T01:13:34.087Z,3.00
2023-02-27T01:17:39.741Z,3.20
2023-02-27T01:21:45.687Z,3.60
2023-02-27T01:25:51.266Z,2.87
2023-02-27T01:29:56.781Z,2.80
2023-02-27T01:34:02.368Z,2.90
2023-02-27T01:38:08.033Z,2.40
2023-02-27T01:42:26.691Z,1.87
2023-02-27T01:46:33.890Z,2.50
2023-02-27T01:51:03.956Z,2.37
2023-02-27T01:55:13.034Z,2.13
2023-02-27T01:59:19.522Z,1.83
2023-02-27T02:03:48.036Z,2.20
2023-02-27T02:07:53.938Z,1.93
2023-02-27T02:12:00.386Z,2.53
2023-02-27T02:16:33.731Z,2.20
2023-02-27T02:21:26.255Z,2.60
2023-02-27T02:26:14.205Z,2.07
2023-02-27T02:30:49.056Z,2.50
2023-02-27T02:35:31.864Z,2.63
2023-02-27T02:40:36.946Z,2.50
2023-02-27T02:45:08.212Z,2.73
2023-02-27T02:49:37.506Z,3.20
2023-02-27T02:53:48.200Z,2.97
2023-02-27T02:58:26.317Z,3.00
2023-02-27T03:02:39.787Z,3.00
2023-02-27T03:06:59.752Z,2.97
2023-02-27T03:11:06.160Z,3.13
2023-02-27T03:15:21.364Z,2.77
2023-02-27T03:19:34.535Z,2.83
2023-02-27T03:23:46.055Z,2.97
2023-02-27T03:28:00.924Z,2.63
2023-02-27T03:32:29.208Z,2.67
2023-02-27T03:37:27.768Z,2.57
2023-02-27T03:41:37.829Z,3.00
2023-02-27T03:45:59.101Z,2.80
2023-02-27T03:50:05.487Z,2.37
2023-02-27T03:54:23.269Z,2.70
2023-02-27T03:58:29.196Z,2.50
2023-02-27T04:02:36.349Z,3.47
2023-02-27T04:07:12.475Z,2.90
2023-02-27T04:12:01.130Z,3.20
2023-02-27T04:16:38.570Z,3.10
2023-02-27T04:21:05.101Z,2.80
2023-02-27T04:25:24.790Z,2.77
2023-02-27T04:29:52.856Z,2.60
2023-02-27T04:34:18.159Z,2.40
2023-02-27T04:38:28.120Z,2.43
2023-02-27T04:42:40.478Z,2.60
2023-02-27T04:46:47.367Z,2.70
2023-02-27T04:51:00.685Z,3.10
2023-02-27T04:55:20.565Z,2.77
2023-02-27T04:59:31.156Z,3.43
2023-02-27T05:03:43.232Z,2.80
2023-02-27T05:08:24.715Z,2.83
2023-02-27T05:12:50.729Z,3.10
2023-02-27T05:17:11.319Z,2.80
2023-02-27T05:21:28.081Z,2.93
2023-02-27T05:26:22.458Z,2.90
2023-02-27T05:30:50.128Z,3.03
2023-02-27T05:35:29.333Z,2.97
2023-02-27T05:39:38.558Z,2.90
2023-02-27T05:43:51.223Z,3.17
2023-02-27T05:48:03.728Z,3.10
2023-02-27T05:52:14.779Z,3.20
2023-02-27T05:56:24.077Z,3.03
2023-02-27T06:00:52.128Z,3.57
2023-02-27T06:04:57.623Z,3.10
2023-02-27T06:09:03.638Z,2.87
2023-02-27T06:13:09.211Z,3.23
2023-02-27T06:17:14.782Z,3.13
2023-02-27T06:21:20.546Z,3.03
2023-02-27T06:25:26.631Z,2.60
2023-02-27T06:29:32.335Z,2.50
2023-02-27T06:33:37.874Z,3.70
2023-02-27T06:37:43.426Z,2.20
2023-02-27T06:41:48.956Z,2.50
2023-02-27T06:45:55.530Z,2.80
2023-02-27T06:50:01.653Z,2.50
2023-02-27T06:54:08.117Z,2.60
2023-02-27T06:58:13.660Z,2.83
2023-02-27T07:02:19.260Z,3.10
2023-02-27T07:07:33.185Z,2.57
2023-02-27T07:10:50.391Z,3.17
2023-02-27T07:14:55.914Z,2.93
2023-02-27T07:19:01.509Z,3.23
2023-02-27T07:23:07.128Z,2.90
2023-02-27T07:27:12.666Z,2.73
2023-02-27T07:31:18.159Z,3.00
2023-02-27T07:35:23.607Z,2.77
2023-02-27T07:39:29.376Z,3.07
2023-02-27T07:43:34.922Z,2.77
2023-02-27T07:47:40.704Z,3.00
2023-02-27T07:51:46.340Z,3.27
2023-02-27T07:55:52.412Z,2.87
2023-02-27T07:59:58.806Z,2.90
2023-02-27T08:04:04.539Z,3.13
2023-02-27T08:08:10.121Z,2.60
2023-02-27T08:12:15.740Z,2.90
2023-02-27T08:16:21.271Z,2.60
2023-02-27T08:20:27.808Z,2.70
2023-02-27T08:24:33.387Z,2.83
2023-02-27T08:28:38.885Z,2.80
2023-02-27T08:32:45.934Z,2.13
2023-02-27T08:36:52.430Z,2.30
2023-02-27T08:40:57.887Z,2.13
2023-02-27T08:45:04.363Z,2.20
2023-02-27T08:49:09.955Z,2.43
2023-02-27T08:53:15.393Z,1.90
2023-02-27T08:57:20.966Z,1.43
2023-02-27T09:01:29.777Z,1.70
2023-02-27T09:05:37.589Z,1.73
2023-02-27T09:09:43.208Z,2.10
2023-02-27T09:13:48.793Z,1.37
2023-02-27T09:17:56.515Z,1.67
2023-02-27T09:22:02.141Z,1.20
2023-02-27T09:26:09.211Z,1.40
2023-02-27T09:30:15.434Z,1.33
2023-02-27T09:34:21.359Z,1.47
2023-02-27T09:38:27.491Z,1.17
2023-02-27T09:42:45.495Z,1.20
2023-02-27T09:46:52.696Z,1.57
2023-02-27T09:50:59.695Z,1.57
2023-02-27T09:55:21.094Z,1.13
2023-02-27T09:59:53.443Z,1.00
2023-02-27T10:04:31.561Z,1.20
2023-02-27T10:09:00.224Z,1.40
2023-02-27T10:13:29.818Z,1.20
2023-02-27T10:17:50.040Z,1.10
2023-02-27T10:21:59.879Z,1.10
2023-02-27T10:26:05.920Z,1.53
2023-02-27T10:30:29.997Z,1.50
2023-02-27T10:34:43.293Z,1.40
2023-02-27T10:38:58.322Z,1.00
2023-02-27T10:47:23.847Z,1.30
2023-02-27T10:51:38.412Z,1.23
2023-02-27T10:55:48.737Z,1.00
2023-02-27T11:00:06.250Z,1.07
2023-02-27T11:04:13.854Z,1.10
2023-02-27T11:08:31.159Z,1.10
2023-02-27T11:12:36.826Z,1.20
2023-02-27T11:16:50.911Z,1.30
2023-02-27T11:21:25.874Z,1.30
2023-02-27T11:25:33.574Z,1.40
2023-02-27T11:29:59.128Z,1.40
2023-02-27T11:34:06.114Z,1.10
2023-02-27T11:38:25.438Z,1.10
2023-02-27T11:42:37.163Z,1.23
2023-02-27T11:46:47.649Z,1.70
2023-02-27T11:51:20.473Z,1.37
2023-02-27T11:55:30.038Z,1.03
2023-02-27T12:00:01.906Z,1.17
2023-02-27T12:04:19.297Z,1.40
2023-02-27T12:08:46.101Z,1.10
2023-02-27T12:13:14.392Z,1.30
2023-02-27T12:17:37.171Z,1.10
2023-02-27T12:22:02.490Z,1.30
2023-02-27T12:26:49.828Z,1.10
2023-02-27T12:31:13.456Z,1.10
2023-02-27T12:35:28.202Z,1.10
2023-02-27T12:39:34.951Z,1.10
2023-02-27T12:43:54.171Z,1.33
2023-02-27T12:48:27.390Z,1.20
2023-02-27T12:53:01.534Z,1.30
2023-02-27T12:57:15.847Z,1.50
2023-02-27T13:01:48.960Z,1.00
2023-02-27T13:06:31.488Z,1.30
2023-02-27T13:10:40.262Z,1.10
2023-02-27T13:15:20.047Z,1.43
2023-02-27T13:19:39.980Z,1.27
2023-02-27T13:24:41.003Z,1.00
2023-02-27T13:28:46.912Z,1.30
2023-02-27T13:33:15.380Z,1.50
2023-02-27T13:37:21.122Z,1.10
2023-02-27T13:41:29.960Z,1.40
2023-02-27T13:45:58.387Z,1.17
2023-02-27T13:50:26.113Z,1.23
2023-02-27T13:54:36.309Z,1.00
2023-02-27T13:58:43.783Z,1.20
2023-02-27T14:03:00.311Z,1.60
2023-02-27T14:07:21.391Z,1.23
2023-02-27T14:11:39.764Z,1.60
2023-02-27T14:15:55.085Z,1.30
2023-02-27T14:20:02.863Z,1.30
2023-02-27T14:24:15.014Z,1.70
2023-02-27T14:28:44.093Z,1.50
2023-02-27T14:33:00.423Z,1.40
2023-02-27T14:37:14.061Z,1.47
2023-02-27T14:41:44.961Z,1.57
2023-02-27T14:45:50.786Z,1.90
2023-02-27T14:49:56.462Z,1.43
2023-02-27T14:54:23.223Z,1.50
2023-02-27T14:58:29.219Z,1.50
2023-02-27T15:02:37.798Z,1.43
2023-02-27T15:06:48.050Z,1.30
2023-02-27T15:10:56.232Z,1.50
2023-02-27T15:15:04.934Z,1.83
2023-02-27T15:19:20.356Z,2.03
2023-02-27T15:23:28.744Z,1.40
2023-02-27T15:27:37.721Z,1.70
2023-02-27T15:31:46.294Z,2.30
2023-02-27T15:35:52.194Z,1.47
2023-02-27T15:40:00.145Z,1.63
2023-02-27T15:44:06.030Z,1.87
2023-02-27T15:48:16.121Z,1.43
2023-02-27T15:52:25.141Z,1.67
2023-02-27T15:56:37.516Z,2.00
2023-02-27T16:00:43.367Z,1.53
2023-02-27T16:04:49.415Z,1.87
2023-02-27T16:09:00.543Z,1.60
2023-02-27T16:13:25.003Z,2.37
2023-02-27T16:17:33.114Z,1.37
2023-02-27T16:21:38.828Z,1.80
2023-02-27T16:26:02.638Z,1.60
2023-02-27T16:30:12.894Z,2.43
2023-02-27T16:34:44.556Z,2.10
2023-02-27T16:38:50.917Z,2.10
2023-02-27T16:42:57.303Z,15.17
2023-02-27T16:47:02.791Z,9.83
2023-02-27T16:51:19.690Z,3.20
2023-02-27T16:55:26.055Z,2.20
2023-02-27T16:59:39.152Z,2.03
2023-02-27T17:03:46.346Z,3.57
2023-02-27T17:07:52.043Z,4.87
2023-02-27T17:11:58.153Z,4.23
2023-02-27T17:16:05.638Z,3.87
2023-02-27T17:20:13.213Z,4.57
2023-02-27T17:24:18.905Z,5.33
2023-02-27T17:28:25.316Z,4.10
2023-02-27T17:32:30.993Z,2.93
2023-02-27T17:36:37.311Z,2.43
2023-02-27T17:40:42.827Z,2.73
2023-02-27T17:44:48.673Z,2.37
2023-02-27T17:48:56.250Z,8.40
2023-02-27T17:53:02.186Z,4.20
2023-02-27T17:57:10.477Z,2.97
2023-02-27T18:01:20.436Z,4.00
2023-02-27T18:05:26.034Z,7.53
2023-02-27T18:09:32.123Z,4.20
2023-02-27T18:13:38.596Z,1.90
2023-02-27T18:17:44.570Z,3.00
2023-02-27T18:21:50.113Z,5.23
2023-02-27T18:26:00.127Z,12.20
2023-02-27T18:30:06.671Z,11.80
2023-02-27T18:34:13.078Z,10.90
2023-02-27T18:38:18.667Z,5.30
2023-02-27T18:42:24.243Z,6.37
2023-02-27T18:46:30.288Z,3.97
2023-02-27T18:50:36.108Z,4.50
2023-02-27T18:54:42.446Z,4.60
2023-02-27T18:58:47.969Z,11.30
2023-02-27T19:02:53.637Z,11.87
2023-02-27T19:06:59.198Z,11.07
2023-02-27T19:11:05.159Z,5.83
2023-02-27T19:15:12.121Z,4.10
2023-02-27T19:19:18.423Z,10.07
2023-02-27T19:23:24.012Z,5.30
2023-02-27T19:27:29.519Z,4.00
2023-02-27T19:31:35.154Z,7.10
2023-02-27T19:35:43.229Z,7.57
2023-02-27T19:39:49.093Z,5.43
2023-02-27T19:43:54.633Z,4.03
2023-02-27T19:48:01.476Z,4.53
2023-02-27T19:52:09.314Z,6.03
2023-02-27T19:56:22.330Z,5.13
2023-02-27T20:00:27.819Z,4.70
2023-02-27T20:04:34.232Z,4.90
2023-02-27T20:08:39.645Z,5.70
2023-02-27T20:12:45.238Z,4.63
2023-02-27T20:16:52.499Z,5.40
2023-02-27T20:21:30.977Z,5.50
2023-02-27T20:25:36.828Z,6.73
2023-02-27T20:29:42.362Z,6.20
2023-02-27T20:33:49.409Z,4.90
2023-02-27T20:37:55.178Z,8.60
2023-02-27T20:42:00.850Z,10.00
2023-02-27T20:46:19.299Z,7.40
2023-02-27T20:50:24.968Z,6.47
2023-02-27T20:54:30.816Z,6.10
2023-02-27T20:58:37.247Z,5.63
2023-02-27T21:02:42.714Z,5.30
2023-02-27T21:06:50.394Z,8.17
2023-02-27T21:10:55.938Z,7.30
2023-02-27T21:15:01.390Z,7.60
2023-02-27T21:19:08.109Z,5.07
2023-02-27T21:23:13.584Z,6.40
2023-02-27T21:27:21.342Z,7.87
2023-02-27T21:31:31.703Z,7.10
2023-02-27T21:35:37.626Z,7.67
2023-02-27T21:39:45.331Z,7.57
2023-02-27T21:43:50.855Z,8.00
2023-02-27T21:47:56.434Z,10.53
2023-02-27T21:52:02.146Z,12.40
2023-02-27T21:56:10.737Z,13.10
2023-02-27T22:00:16.651Z,11.50
2023-02-27T22:04:22.488Z,12.17
2023-02-27T22:08:28.754Z,8.70
2023-02-27T22:12:34.257Z,8.80
2023-02-27T22:16:40.721Z,8.80
2023-02-27T22:20:46.592Z,9.03
2023-02-27T22:24:52.238Z,7.57
2023-02-27T22:28:58.543Z,7.43
2023-02-27T22:33:04.116Z,9.30
2023-02-27T22:37:09.644Z,8.10
2023-02-27T22:41:22.525Z,9.40
2023-02-27T22:45:28.086Z,8.73
2023-02-27T22:49:33.648Z,8.47
2023-02-27T22:53:39.813Z,9.57
2023-02-27T22:57:49.469Z,7.87
2023-02-27T23:01:55.148Z,8.03
2023-02-27T23:06:00.862Z,6.97
2023-02-27T23:10:09.864Z,7.60
2023-02-27T23:14:15.885Z,7.67
2023-02-27T23:18:21.902Z,8.20
2023-02-27T23:22:33.384Z,7.97
2023-02-27T23:26:45.801Z,7.80
2023-02-27T23:30:51.258Z,7.43
2023-02-27T23:34:56.874Z,7.63
2023-02-27T23:39:03.983Z,7.90
2023-02-27T23:43:28.455Z,7.50
2023-02-27T23:47:45.753Z,6.90
2023-02-27T23:51:51.392Z,7.50
2023-02-27T23:55:57.197Z,7.57
